createdAt,value
2017-10-25T00:00:53.008Z,31.37
2017-10-25T00:03:22.886Z,29.70
2017-10-25T00:05:52.809Z,31.57
2017-10-25T00:08:23.236Z,30.30
2017-10-25T00:10:53.107Z,31.43
2017-10-25T00:13:23.017Z,31.50
2017-10-25T00:15:52.879Z,30.27
2017-10-25T00:18:22.762Z,30.30
2017-10-25T00:20:52.656Z,30.13
2017-10-25T00:23:22.805Z,31.00
2017-10-25T00:25:52.655Z,27.80
2017-10-25T00:28:22.577Z,27.83
2017-10-25T00:30:52.496Z,28.13
2017-10-25T00:33:22.710Z,28.83
2017-10-25T00:35:52.563Z,28.80
2017-10-25T00:38:22.459Z,28.37
2017-10-25T00:40:52.489Z,26.93
2017-10-25T00:43:22.880Z,28.27
2017-10-25T00:45:52.741Z,29.17
2017-10-25T00:48:22.629Z,26.30
2017-10-25T00:50:52.490Z,28.10
2017-10-25T00:53:22.642Z,27.47
2017-10-25T00:55:52.520Z,27.50
2017-10-25T00:58:22.779Z,26.80
2017-10-25T01:00:52.669Z,27.90
2017-10-25T01:03:22.601Z,26.73
2017-10-25T01:05:52.466Z,28.80
2017-10-25T01:08:22.341Z,27.97
2017-10-25T01:10:52.182Z,28.60
2017-10-25T01:13:22.047Z,27.27
2017-10-25T01:15:51.901Z,27.10
2017-10-25T01:18:21.817Z,25.80
2017-10-25T01:20:52.101Z,26.97
2017-10-25T01:23:21.977Z,27.20
2017-10-25T01:25:52.181Z,25.83
2017-10-25T01:28:22.095Z,26.20
2017-10-25T01:30:52.369Z,28.60
2017-10-25T01:33:22.268Z,26.60
2017-10-25T01:35:52.505Z,28.50
2017-10-25T01:38:22.378Z,29.03
2017-10-25T01:40:52.265Z,28.30
2017-10-25T01:43:22.161Z,28.03
2017-10-25T01:45:52.050Z,26.53
2017-10-25T01:48:22.273Z,25.67
2017-10-25T01:50:52.185Z,24.23
2017-10-25T01:53:22.099Z,25.17
2017-10-25T01:55:52.047Z,27.10
2017-10-25T01:58:22.334Z,25.70
2017-10-25T02:00:52.209Z,28.67
2017-10-25T02:03:22.125Z,26.87
2017-10-25T02:05:52.049Z,26.03
2017-10-25T02:08:22.338Z,27.87
2017-10-25T02:10:52.233Z,27.07
2017-10-25T02:13:22.149Z,28.30
2017-10-25T02:15:52.052Z,29.20
2017-10-25T02:18:21.956Z,27.77
2017-10-25T02:20:51.821Z,29.07
2017-10-25T02:23:21.747Z,28.67
2017-10-25T02:25:51.622Z,28.47
2017-10-25T02:28:21.814Z,28.10
2017-10-25T02:30:51.697Z,27.33
2017-10-25T02:33:21.601Z,27.97
2017-10-25T02:35:51.475Z,28.13
2017-10-25T02:38:21.672Z,27.33
2017-10-25T02:40:51.534Z,27.17
2017-10-25T02:43:21.706Z,28.87
2017-10-25T02:45:51.559Z,27.40
2017-10-25T02:48:21.734Z,28.67
2017-10-25T02:50:51.642Z,29.13
2017-10-25T02:53:21.513Z,27.37
2017-10-25T02:55:51.376Z,26.20
2017-10-25T02:58:21.257Z,25.80
2017-10-25T03:00:51.378Z,26.20
2017-10-25T03:03:21.232Z,27.87
2017-10-25T03:05:51.437Z,26.03
2017-10-25T03:08:21.368Z,25.77
2017-10-25T03:10:51.260Z,26.67
2017-10-25T03:13:21.119Z,26.43
2017-10-25T03:15:51.024Z,27.60
2017-10-25T03:18:21.167Z,26.60
2017-10-25T03:20:51.050Z,25.20
2017-10-25T03:23:20.921Z,25.40
2017-10-25T03:25:50.780Z,25.17
2017-10-25T03:28:20.921Z,24.60
2017-10-25T03:30:50.797Z,23.60
2017-10-25T03:33:21.010Z,23.60
2017-10-25T03:35:50.878Z,23.57
2017-10-25T03:38:20.847Z,22.77
2017-10-25T03:40:50.766Z,21.60
2017-10-25T03:43:20.912Z,22.27
2017-10-25T03:45:50.809Z,21.50
2017-10-25T03:48:20.710Z,20.17
2017-10-25T03:50:50.679Z,18.67
2017-10-25T03:53:20.929Z,23.13
2017-10-25T03:55:50.788Z,19.97
2017-10-25T03:58:20.950Z,20.10
2017-10-25T04:00:50.850Z,18.70
2017-10-25T04:03:20.745Z,18.40
2017-10-25T04:05:50.613Z,20.57
2017-10-25T04:08:20.819Z,19.03
2017-10-25T04:10:50.677Z,17.33
2017-10-25T04:13:20.843Z,16.97
2017-10-25T04:15:50.721Z,15.77
2017-10-25T04:18:20.625Z,15.90
2017-10-25T04:20:50.485Z,16.30
2017-10-25T04:23:20.639Z,13.50
2017-10-25T04:25:50.493Z,13.10
2017-10-25T04:28:20.388Z,13.77
2017-10-25T04:30:50.310Z,12.60
2017-10-25T04:33:20.181Z,13.23
2017-10-25T04:35:50.049Z,11.20
2017-10-25T04:38:19.929Z,11.87
2017-10-25T04:40:50.062Z,11.93
2017-10-25T04:43:19.921Z,12.77
2017-10-25T04:45:50.138Z,11.77
2017-10-25T04:48:20.136Z,12.00
2017-10-25T04:50:50.008Z,10.47
2017-10-25T04:53:19.913Z,11.20
2017-10-25T04:55:50.086Z,11.47
2017-10-25T04:58:19.941Z,11.83
2017-10-25T05:00:49.829Z,11.43
2017-10-25T05:03:19.690Z,12.87
2017-10-25T05:05:49.846Z,12.77
2017-10-25T05:08:19.717Z,13.40
2017-10-25T05:10:49.889Z,13.33
2017-10-25T05:13:19.760Z,14.90
2017-10-25T05:15:49.653Z,15.57
2017-10-25T05:18:19.498Z,15.10
2017-10-25T05:20:49.708Z,14.33
2017-10-25T05:23:19.564Z,14.67
2017-10-25T05:25:49.774Z,16.00
2017-10-25T05:28:19.663Z,16.23
2017-10-25T05:30:49.535Z,15.73
2017-10-25T05:33:19.401Z,14.97
2017-10-25T05:35:49.285Z,15.73
2017-10-25T05:38:19.158Z,15.13
2017-10-25T05:40:49.014Z,14.70
2017-10-25T05:43:19.171Z,14.00
2017-10-25T05:45:49.043Z,15.30
2017-10-25T05:48:19.312Z,15.00
2017-10-25T05:50:49.176Z,14.70
2017-10-25T05:53:19.335Z,15.30
2017-10-25T05:55:49.198Z,13.70
2017-10-25T05:58:19.095Z,13.67
2017-10-25T06:00:48.956Z,14.60
2017-10-25T06:03:18.826Z,13.30
2017-10-25T06:05:49.031Z,14.07
2017-10-25T06:08:18.906Z,13.77
2017-10-25T06:10:48.834Z,14.17
2017-10-25T06:13:18.688Z,14.10
2017-10-25T06:15:48.845Z,15.23
2017-10-25T06:18:18.759Z,15.03
2017-10-25T06:20:48.901Z,15.13
2017-10-25T06:23:18.836Z,14.97
2017-10-25T06:25:49.038Z,15.13
2017-10-25T06:28:18.913Z,14.07
2017-10-25T06:30:49.166Z,13.80
2017-10-25T06:33:19.026Z,14.07
2017-10-25T06:35:49.246Z,14.37
2017-10-25T06:38:19.141Z,15.00
2017-10-25T06:40:49.006Z,15.57
2017-10-25T06:43:18.886Z,14.90
2017-10-25T06:45:48.774Z,17.10
2017-10-25T06:48:18.678Z,15.13
2017-10-25T06:50:48.567Z,16.77
2017-10-25T06:53:18.441Z,15.23
2017-10-25T06:55:48.579Z,15.17
2017-10-25T06:58:18.443Z,16.37
2017-10-25T07:00:48.332Z,14.80
2017-10-25T07:03:18.239Z,15.87
2017-10-25T07:05:48.107Z,13.70
2017-10-25T07:08:17.987Z,14.27
2017-10-25T07:10:47.928Z,14.57
2017-10-25T07:13:18.373Z,15.10
2017-10-25T07:15:48.310Z,15.00
2017-10-25T07:18:18.462Z,15.20
2017-10-25T07:20:48.340Z,14.40
2017-10-25T07:23:18.231Z,14.00
2017-10-25T07:25:48.135Z,13.13
2017-10-25T07:28:17.998Z,13.83
2017-10-25T07:30:48.173Z,13.53
2017-10-25T07:33:18.028Z,12.10
2017-10-25T07:35:47.961Z,13.50
2017-10-25T07:38:17.841Z,13.07
2017-10-25T07:40:47.999Z,14.40
2017-10-25T07:43:17.861Z,14.53
2017-10-25T07:45:48.015Z,15.47
2017-10-25T07:48:17.946Z,15.10
2017-10-25T07:50:48.157Z,15.67
2017-10-25T07:53:18.010Z,16.30
2017-10-25T07:55:48.149Z,17.63
2017-10-25T07:58:17.994Z,17.63
2017-10-25T08:00:48.138Z,16.60
2017-10-25T08:03:18.012Z,18.90
2017-10-25T08:05:48.025Z,17.50
2017-10-25T08:08:17.878Z,16.40
2017-10-25T08:10:48.180Z,16.57
2017-10-25T08:13:18.082Z,17.10
2017-10-25T08:15:48.219Z,16.20
2017-10-25T08:18:18.115Z,17.50
2017-10-25T08:20:47.990Z,15.67
2017-10-25T08:23:17.856Z,16.60
2017-10-25T08:25:47.736Z,15.93
2017-10-25T08:28:17.602Z,15.63
2017-10-25T08:30:47.484Z,15.00
2017-10-25T08:33:17.345Z,14.20
2017-10-25T08:35:47.273Z,14.47
2017-10-25T08:38:17.130Z,12.90
2017-10-25T08:40:47.005Z,12.97
2017-10-25T08:43:17.020Z,13.30
2017-10-25T08:45:46.980Z,12.43
2017-10-25T08:48:16.910Z,10.40
2017-10-25T08:50:46.830Z,11.77
2017-10-25T08:53:16.765Z,10.50
2017-10-25T08:55:46.616Z,8.30
2017-10-25T08:58:16.847Z,9.00
2017-10-25T09:00:46.758Z,8.27
2017-10-25T09:03:16.636Z,7.13
2017-10-25T09:05:46.483Z,6.40
2017-10-25T09:08:16.515Z,5.67
2017-10-25T09:10:46.385Z,6.30
2017-10-25T09:13:16.247Z,5.37
2017-10-25T09:15:46.226Z,6.00
2017-10-25T09:18:16.093Z,5.07
2017-10-25T09:20:46.021Z,5.90
2017-10-25T09:23:15.881Z,4.63
2017-10-25T09:25:45.764Z,3.90
2017-10-25T09:28:15.634Z,4.00
2017-10-25T09:30:45.520Z,3.60
2017-10-25T09:33:15.481Z,3.93
2017-10-25T09:35:45.344Z,3.13
2017-10-25T09:38:15.194Z,3.53
2017-10-25T09:40:45.073Z,3.60
2017-10-25T09:43:14.942Z,3.63
2017-10-25T09:45:44.860Z,2.90
2017-10-25T09:48:14.897Z,3.63
2017-10-25T09:50:44.835Z,2.60
2017-10-25T09:53:14.769Z,3.50
2017-10-25T09:55:44.661Z,3.60
2017-10-25T09:58:14.633Z,3.30
2017-10-25T10:00:44.504Z,3.70
2017-10-25T10:03:14.509Z,3.77
2017-10-25T10:05:45.236Z,3.90
2017-10-25T10:08:15.113Z,4.17
2017-10-25T10:10:45.021Z,3.47
2017-10-25T10:13:15.106Z,3.50
2017-10-25T10:15:45.015Z,3.60
2017-10-25T10:18:14.929Z,4.10
2017-10-25T10:20:44.794Z,4.17
2017-10-25T10:23:14.701Z,3.37
2017-10-25T10:25:44.774Z,3.77
2017-10-25T10:28:14.659Z,4.07
2017-10-25T10:30:44.515Z,4.33
2017-10-25T10:33:14.642Z,4.00
2017-10-25T10:35:44.560Z,4.10
2017-10-25T10:38:14.431Z,3.80
2017-10-25T10:40:44.352Z,4.40
2017-10-25T10:43:14.445Z,3.47
2017-10-25T10:45:44.302Z,3.57
2017-10-25T10:48:14.175Z,3.63
2017-10-25T10:50:44.048Z,3.30
2017-10-25T10:53:14.029Z,2.90
2017-10-25T10:55:43.922Z,3.23
2017-10-25T10:58:13.789Z,3.30
2017-10-25T11:00:43.848Z,3.60
2017-10-25T11:03:13.780Z,3.30
2017-10-25T11:05:43.745Z,2.83
2017-10-25T11:08:13.677Z,4.27
2017-10-25T11:10:43.561Z,3.60
2017-10-25T11:13:13.410Z,3.63
2017-10-25T11:15:43.353Z,3.17
2017-10-25T11:18:13.245Z,3.00
2017-10-25T11:20:43.234Z,4.17
2017-10-25T11:23:13.114Z,3.87
2017-10-25T11:25:42.975Z,3.13
2017-10-25T11:28:12.915Z,4.47
2017-10-25T11:30:42.776Z,3.40
2017-10-25T11:33:12.630Z,3.83
2017-10-25T11:35:42.477Z,3.90
2017-10-25T11:38:12.350Z,5.07
2017-10-25T11:40:42.262Z,5.80
2017-10-25T11:43:12.181Z,4.20
2017-10-25T11:45:42.089Z,4.70
2017-10-25T11:48:11.942Z,4.87
2017-10-25T11:50:41.864Z,5.13
2017-10-25T11:53:11.743Z,5.50
2017-10-25T11:55:41.657Z,5.23
2017-10-25T11:58:11.518Z,5.07
2017-10-25T12:00:41.690Z,5.63
2017-10-25T12:03:11.583Z,6.03
2017-10-25T12:05:41.472Z,6.47
2017-10-25T12:08:11.325Z,7.00
2017-10-25T12:10:41.328Z,5.63
2017-10-25T12:13:11.183Z,6.50
2017-10-25T12:15:41.079Z,6.70
2017-10-25T12:18:10.971Z,5.43
2017-10-25T12:20:40.829Z,6.27
2017-10-25T12:23:10.715Z,6.43
2017-10-25T12:25:40.586Z,7.30
2017-10-25T12:28:10.479Z,6.00
2017-10-25T12:30:40.350Z,6.23
2017-10-25T12:33:10.237Z,6.20
2017-10-25T12:35:40.097Z,5.70
2017-10-25T12:38:09.945Z,5.77
2017-10-25T12:40:39.856Z,5.17
2017-10-25T12:43:09.715Z,5.20
2017-10-25T12:45:39.573Z,5.73
2017-10-25T12:48:09.442Z,4.97
2017-10-25T12:50:39.335Z,6.00
2017-10-25T12:53:09.207Z,5.23
2017-10-25T12:55:39.079Z,4.97
2017-10-25T12:58:08.966Z,5.20
2017-10-25T13:00:38.841Z,5.53
2017-10-25T13:03:08.749Z,5.10
2017-10-25T13:05:38.606Z,4.07
2017-10-25T13:08:08.494Z,4.10
2017-10-25T13:11:04.257Z,4.03
2017-10-25T13:13:37.742Z,5.20
2017-10-25T13:16:15.733Z,4.50
2017-10-25T13:18:45.614Z,3.50
2017-10-25T13:21:15.477Z,3.67
2017-10-25T13:23:45.376Z,3.37
2017-10-25T13:26:15.240Z,4.87
2017-10-25T13:28:45.189Z,3.27
2017-10-25T13:31:15.107Z,3.77
2017-10-25T13:33:44.972Z,3.40
2017-10-25T13:36:15.002Z,4.63
2017-10-25T13:38:44.877Z,4.37
2017-10-25T13:41:14.790Z,3.00
2017-10-25T13:43:44.656Z,2.97
2017-10-25T13:46:14.539Z,2.00
2017-10-25T13:48:44.436Z,3.83
2017-10-25T13:51:14.394Z,1.83
2017-10-25T13:53:44.294Z,1.87
2017-10-25T13:56:14.177Z,2.07
2017-10-25T13:58:44.151Z,1.80
2017-10-25T14:01:14.028Z,1.63
2017-10-25T14:03:43.977Z,2.80
2017-10-25T14:06:13.877Z,1.47
2017-10-25T14:08:43.778Z,1.70
2017-10-25T14:11:13.622Z,1.80
2017-10-25T14:13:43.501Z,1.23
2017-10-25T14:16:14.022Z,2.50
2017-10-25T14:18:43.972Z,1.40
2017-10-25T14:21:13.893Z,1.57
2017-10-25T14:23:43.818Z,1.37
2017-10-25T14:26:25.431Z,1.23
2017-10-25T14:28:55.319Z,1.70
2017-10-25T14:31:25.182Z,1.43
2017-10-25T14:33:55.170Z,1.07
2017-10-25T14:36:25.113Z,1.77
2017-10-25T14:38:55.004Z,2.07
2017-10-25T14:41:25.140Z,2.00
2017-10-25T14:43:55.048Z,1.60
2017-10-25T14:46:24.987Z,1.23
2017-10-25T14:48:54.931Z,1.37
2017-10-25T14:51:24.791Z,2.00
2017-10-25T14:53:54.669Z,1.80
2017-10-25T14:56:24.846Z,1.80
2017-10-25T14:58:54.728Z,1.20
2017-10-25T15:01:24.588Z,1.10
2017-10-25T15:03:54.487Z,1.40
2017-10-25T15:06:24.379Z,1.33
2017-10-25T15:08:54.261Z,1.73
2017-10-25T15:11:24.163Z,1.67
2017-10-25T15:13:54.030Z,1.30
2017-10-25T15:16:23.919Z,1.97
2017-10-25T15:18:53.847Z,1.43
2017-10-25T15:21:23.763Z,1.50
2017-10-25T15:23:53.744Z,1.20
2017-10-25T15:26:23.701Z,1.30
2017-10-25T15:28:53.634Z,1.53
2017-10-25T15:31:23.527Z,1.70
2017-10-25T15:33:53.389Z,2.03
2017-10-25T15:36:24.058Z,1.47
2017-10-25T15:38:53.932Z,1.20
2017-10-25T15:41:23.826Z,1.97
2017-10-25T15:43:53.886Z,2.20
2017-10-25T15:46:23.887Z,1.40
2017-10-25T15:48:53.784Z,3.10
2017-10-25T15:51:23.768Z,1.50
2017-10-25T15:53:53.629Z,3.00
2017-10-25T15:56:23.543Z,1.67
2017-10-25T15:58:53.448Z,1.60
2017-10-25T16:01:23.351Z,1.77
2017-10-25T16:03:53.263Z,1.97
2017-10-25T16:06:23.139Z,1.43
2017-10-25T16:08:53.019Z,2.03
2017-10-25T16:11:23.044Z,2.47
2017-10-25T16:13:53.103Z,2.33
2017-10-25T16:16:23.009Z,1.50
2017-10-25T16:18:52.932Z,2.53
2017-10-25T16:21:22.929Z,2.43
2017-10-25T16:23:52.816Z,1.97
2017-10-25T16:26:22.729Z,2.00
2017-10-25T16:28:52.642Z,2.30
2017-10-25T16:31:22.722Z,2.00
2017-10-25T16:33:52.749Z,2.87
2017-10-25T16:36:22.715Z,3.43
2017-10-25T16:38:52.701Z,1.83
2017-10-25T16:41:22.591Z,2.03
2017-10-25T16:43:52.620Z,1.87
2017-10-25T16:46:22.474Z,2.00
2017-10-25T16:48:52.431Z,2.30
2017-10-25T16:51:22.357Z,2.00
2017-10-25T16:53:52.236Z,2.23
2017-10-25T16:56:22.133Z,2.63
2017-10-25T16:58:51.989Z,2.20
2017-10-25T17:01:21.928Z,1.97
2017-10-25T17:03:51.870Z,2.70
2017-10-25T17:06:21.887Z,2.00
2017-10-25T17:08:52.430Z,1.63
2017-10-25T17:11:26.305Z,2.00
2017-10-25T17:13:56.573Z,1.83
2017-10-25T17:16:26.494Z,2.63
2017-10-25T17:18:56.440Z,2.53
2017-10-25T17:21:26.346Z,2.37
2017-10-25T17:23:56.239Z,2.47
2017-10-25T17:26:26.118Z,1.93
2017-10-25T17:28:56.044Z,1.80
2017-10-25T17:31:25.929Z,2.70
2017-10-25T17:33:55.889Z,2.37
2017-10-25T17:36:25.765Z,1.77
2017-10-25T17:38:55.654Z,1.97
2017-10-25T17:41:25.531Z,3.10
2017-10-25T17:43:55.538Z,1.87
2017-10-25T17:46:25.433Z,3.47
2017-10-25T17:48:55.316Z,1.87
2017-10-25T17:51:25.225Z,1.77
2017-10-25T17:53:55.080Z,3.17
2017-10-25T17:56:25.132Z,3.03
2017-10-25T17:58:55.010Z,2.47
2017-10-25T18:01:24.918Z,2.47
2017-10-25T18:03:54.847Z,1.87
2017-10-25T18:06:24.914Z,2.20
2017-10-25T18:08:54.930Z,2.23
2017-10-25T18:11:25.012Z,1.87
2017-10-25T18:13:54.902Z,1.93
2017-10-25T18:16:24.821Z,2.80
2017-10-25T18:18:54.703Z,1.80
2017-10-25T18:21:25.120Z,3.43
2017-10-25T18:23:55.004Z,2.40
2017-10-25T18:26:24.889Z,3.47
2017-10-25T18:28:54.762Z,2.83
2017-10-25T18:31:24.783Z,4.53
2017-10-25T18:33:54.683Z,3.10
2017-10-25T18:36:24.571Z,3.20
2017-10-25T18:38:54.548Z,2.30
2017-10-25T18:41:24.546Z,4.33
2017-10-25T18:43:54.479Z,2.40
2017-10-25T18:46:24.363Z,2.43
2017-10-25T18:48:54.233Z,3.33
2017-10-25T18:51:24.351Z,2.67
2017-10-25T18:53:54.863Z,4.00
2017-10-25T18:56:24.826Z,3.00
2017-10-25T18:58:54.773Z,2.30
2017-10-25T19:01:25.680Z,2.47
2017-10-25T19:03:55.591Z,2.20
2017-10-25T19:06:25.480Z,2.30
2017-10-25T19:08:55.722Z,2.57
2017-10-25T19:11:25.681Z,2.40
2017-10-25T19:13:55.604Z,2.70
2017-10-25T19:16:25.497Z,2.70
2017-10-25T19:18:55.381Z,2.47
2017-10-25T19:21:25.464Z,2.90
2017-10-25T19:23:55.367Z,2.70
2017-10-25T19:26:25.340Z,2.70
2017-10-25T19:28:55.234Z,3.03
2017-10-25T19:31:25.239Z,2.70
2017-10-25T19:33:55.206Z,3.10
2017-10-25T19:36:25.123Z,2.20
2017-10-25T19:38:54.998Z,3.00
2017-10-25T19:41:24.927Z,3.37
2017-10-25T19:43:54.831Z,2.53
2017-10-25T19:46:24.714Z,2.70
2017-10-25T19:48:54.611Z,2.60
2017-10-25T19:51:24.562Z,2.80
2017-10-25T19:53:54.434Z,2.33
2017-10-25T19:56:24.536Z,2.50
2017-10-25T19:58:54.407Z,2.53
2017-10-25T20:01:24.307Z,2.00
2017-10-25T20:03:54.199Z,2.90
2017-10-25T20:06:24.171Z,2.27
2017-10-25T20:08:54.070Z,2.20
2017-10-25T20:11:23.997Z,2.20
2017-10-25T20:13:53.895Z,2.63
2017-10-25T20:16:23.769Z,2.83
2017-10-25T20:18:53.733Z,3.20
2017-10-25T20:21:23.599Z,2.63
2017-10-25T20:23:53.507Z,2.60
2017-10-25T20:26:23.566Z,2.83
2017-10-25T20:28:53.456Z,2.47
2017-10-25T20:31:23.364Z,2.60
2017-10-25T20:33:53.242Z,2.40
2017-10-25T20:36:23.250Z,2.80
2017-10-25T20:38:53.216Z,3.50
2017-10-25T20:41:23.107Z,2.57
2017-10-25T20:43:53.063Z,2.97
2017-10-25T20:46:23.051Z,3.20
2017-10-25T20:48:52.958Z,2.47
2017-10-25T20:51:22.849Z,2.20
2017-10-25T20:53:52.735Z,2.53
2017-10-25T20:56:22.664Z,2.87
2017-10-25T20:58:52.575Z,2.40
2017-10-25T21:01:22.482Z,2.70
2017-10-25T21:03:52.340Z,2.77
2017-10-25T21:06:22.247Z,2.30
2017-10-25T21:08:52.122Z,2.70
2017-10-25T21:11:22.043Z,2.50
2017-10-25T21:13:51.945Z,2.70
2017-10-25T21:16:22.663Z,2.77
2017-10-25T21:18:52.708Z,3.07
2017-10-25T21:21:22.576Z,2.73
2017-10-25T21:23:52.475Z,2.50
2017-10-25T21:26:22.349Z,2.33
2017-10-25T21:28:52.234Z,2.63
2017-10-25T21:31:22.104Z,3.00
2017-10-25T21:33:51.973Z,2.70
2017-10-25T21:36:22.527Z,2.20
2017-10-25T21:38:52.441Z,2.27
2017-10-25T21:41:22.334Z,2.60
2017-10-25T21:43:52.199Z,2.40
2017-10-25T21:46:22.099Z,2.43
2017-10-25T21:48:51.971Z,2.90
2017-10-25T21:51:21.842Z,3.00
2017-10-25T21:53:51.719Z,2.57
2017-10-25T21:56:21.642Z,3.37
2017-10-25T21:58:51.559Z,2.70
2017-10-25T22:01:21.432Z,2.70
2017-10-25T22:03:51.350Z,2.83
2017-10-25T22:06:21.213Z,3.20
2017-10-25T22:08:51.066Z,4.60
2017-10-25T22:11:20.915Z,2.77
2017-10-25T22:13:50.777Z,2.40
2017-10-25T22:16:20.664Z,2.30
2017-10-25T22:18:50.565Z,2.77
2017-10-25T22:21:20.590Z,2.13
2017-10-25T22:23:50.450Z,3.40
2017-10-25T22:26:20.338Z,3.03
2017-10-25T22:28:50.261Z,2.77
2017-10-25T22:31:20.138Z,3.10
2017-10-25T22:33:49.986Z,2.97
2017-10-25T22:36:19.841Z,2.90
2017-10-25T22:38:49.710Z,2.73
2017-10-25T22:41:19.566Z,2.23
2017-10-25T22:43:49.479Z,2.57
2017-10-25T22:46:19.413Z,3.57
2017-10-25T22:48:49.296Z,2.60
2017-10-25T22:51:19.162Z,3.60
2017-10-25T22:53:49.046Z,3.77
2017-10-25T22:56:18.931Z,2.70
2017-10-25T22:58:48.800Z,3.27
2017-10-25T23:01:18.731Z,3.00
2017-10-25T23:03:48.590Z,3.20
2017-10-25T23:06:18.485Z,3.10
2017-10-25T23:08:48.413Z,3.27
2017-10-25T23:11:18.285Z,3.97
2017-10-25T23:13:48.138Z,2.80
2017-10-25T23:16:18.006Z,2.70
2017-10-25T23:18:47.883Z,2.40
2017-10-25T23:21:17.728Z,3.03
2017-10-25T23:23:47.631Z,4.07
2017-10-25T23:26:17.475Z,3.30
2017-10-25T23:28:47.366Z,4.20
2017-10-25T23:31:17.209Z,3.73
2017-10-25T23:33:47.055Z,3.13
2017-10-25T23:36:16.911Z,4.33
2017-10-25T23:38:46.893Z,3.67
2017-10-25T23:41:16.778Z,3.60
2017-10-25T23:43:46.646Z,3.40
2017-10-25T23:46:16.566Z,3.50
2017-10-25T23:48:46.430Z,4.03
2017-10-25T23:51:16.299Z,3.77
2017-10-25T23:53:46.209Z,3.60
2017-10-25T23:56:16.066Z,4.00
2017-10-25T23:58:45.976Z,2.90
